Nearby METAR Reports

 

KMTN - Baltimore/Martin, Maryland, USA
Distance from station: SSE 8mi, 13km
Updated: Thu, 26-Mar-2015 9:45pm EDT
Overcast
Overcast
 Wind from NNW
Wind: NNW 6 mph , 9 km/h
Temperature: 59°F , 15°C
Dew Point: 57°F , 14°C
Humidity: 94%
Barometer: 29.68 inHg , 1005.1 hPa
Clouds: Overcast
Visibility: 10 miles , 16 km
Cloud details: Overcast 4000 ft
2015/03/27 01:45 KMTN 270145Z 33005KT 10SM OVC040 15/14 A2968 RMK LAST
KDMH - Baltimore/Dwntwn, Maryland, USA
Distance from station: SW 12mi, 19km
Updated: Thu, 26-Mar-2015 8:54pm EDT

 
Temperature: 61°F , 16°C
Dew Point: 55°F , 13°C
Humidity: 83%
Barometer: 29.66 inHg , 1004.4 hPa
2015/03/27 00:54 KDMH 270054Z AUTO 16/13 A2966 RMK AO1 SLP043 P0013 T01610128
 
KBWI - Balto/Wash Intl, Maryland, USA
Distance from station: SSW 20mi, 33km
Updated: Thu, 26-Mar-2015 8:54pm EDT
Overcast
Overcast
 Wind from WNW
Wind: WNW 7 mph , 11 km/h
Temperature: 61°F , 16°C
Dew Point: 55°F , 13°C
Humidity: 83%
Barometer: 29.65 inHg , 1004.1 hPa
Clouds: Overcast
Visibility: 10 miles , 16 km
Cloud details: Partly cloudy 1300 ft
Mostly cloudy 3200 ft
Overcast 4100 ft
2015/03/27 00:54 KBWI 270054Z 30006KT 10SM SCT013 BKN032 OVC041 16/13 A2965 RMK AO2 RAB2356E37 SLP040 VCSH P0003 T01560128
KDMW - Carroll Cnty, Maryland, USA
Distance from station: WNW 30mi, 48km
Updated: Thu, 26-Mar-2015 9:45pm EDT
Overcast
Overcast
 Wind from NW
Wind: NW 12 mph , 19 km/h, Gust: 20 mph , 31 km/h
Temperature: 52°F , 11°C
Dew Point: 46°F , 8°C
Humidity: 82%
Barometer: 29.72 inHg , 1006.4 hPa
Clouds: Overcast
Visibility: 10 miles , 16 km
Cloud details: Partly cloudy 2600 ft
Partly cloudy 6500 ft
Overcast 9000 ft
2015/03/27 01:45 KDMW 270145Z AUTO 32010G17KT 10SM SCT026 SCT065 OVC090 11/08 A2972 RMK AO2
 
KNAK - Annapolis/Naval, Maryland, USA
Distance from station: S 30mi, 48km
Updated: Thu, 26-Mar-2015 8:54pm EDT
Light rain, Overcast
Light rain, Overcast
 Wind from NNW
Wind: NNW 10 mph , 17 km/h
Temperature: 57°F , 14°C
Dew Point: 54°F , 12°C
Humidity: 88%
Barometer: 29.63 inHg , 1003.4 hPa
Summary: Light rain
Clouds: Overcast
Visibility: 7 miles , 11 km
Cloud details: Mostly cloudy 6000 ft
Mostly cloudy 8000 ft
Overcast 9500 ft
2015/03/27 00:54 KNAK 270054Z AUTO 33009KT 7SM -RA BKN060 BKN080 OVC095 14/12 A2963 RMK AO2 RAB37 SLP037 P0003 T01390117
KW29 - Stevensville, Maryland, USA
Distance from station: SSE 31mi, 50km
Updated: Thu, 26-Mar-2015 9:44pm EDT
Light rain
Light rain
 Wind from NNW
Wind: NNW 5 mph , 7 km/h
Temperature: 55°F , 13°C
Dew Point: 54°F , 12°C
Humidity: 94%
Barometer: 29.68 inHg , 1005.1 hPa
Summary: Light rain
Visibility: 10 miles , 16 km
2015/03/27 01:44 KW29 270144Z AUTO 33004KT 10SM -RA 13/12 A2968 RMK AO1
 
KCGS - College Park, Maryland, USA
Distance from station: SW 38mi, 61km
Updated: Thu, 26-Mar-2015 9:40pm EDT
Overcast
Overcast
 Wind from NNW
Wind: NNW 6 mph , 9 km/h
Temperature: 61°F , 16°C
Dew Point: 54°F , 12°C
Humidity: 77%
Barometer: 29.68 inHg , 1005.1 hPa
Clouds: Overcast
Visibility: 10 miles , 16 km
Cloud details: Overcast 4000 ft
2015/03/27 01:40 KCGS 270140Z AUTO 33005KT 10SM OVC040 16/12 A2968 RMK AO1
KGAI - Gaithersburg, Maryland, USA
Distance from station: WSW 40mi, 65km
Updated: Thu, 26-Mar-2015 9:35pm EDT
Overcast
Overcast
 Wind from NW
Wind: NW 12 mph , 19 km/h, Gust: 18 mph , 30 km/h
Temperature: 55°F , 13°C
Dew Point: 48°F , 9°C
Humidity: 77%
Barometer: 29.74 inHg , 1007.1 hPa
Clouds: Overcast
Visibility: 10 miles , 16 km
Cloud details: Mostly cloudy 4900 ft
Mostly cloudy 6500 ft
Overcast 8000 ft
2015/03/27 01:35 KGAI 270135Z AUTO 32010G16KT 10SM BKN049 BKN065 OVC080 13/09 A2974 RMK AO1
 
KTHV - York, Pennsylvania, USA
Distance from station: NNW 40mi, 65km
Updated: Thu, 26-Mar-2015 9:40pm EDT
Overcast
Overcast
 Wind from NW
Wind: NW 14 mph , 22 km/h, Gust: 20 mph , 31 km/h
Temperature: 48°F , 9°C
Wind Chill: 42°F , 6°C
Dew Point: 43°F , 6°C
Humidity: 82%
Barometer: 29.74 inHg , 1007.1 hPa
Clouds: Overcast
Visibility: 10 miles , 16 km
Cloud details: Mostly cloudy 2200 ft
Overcast 8000 ft
2015/03/27 01:40 KTHV 270140Z AUTO 32012G17KT 10SM BKN022 OVC080 09/06 A2974 RMK AO2 T00890056
KFDK - Frederick, Maryland, USA
Distance from station: W 47mi, 75km
Updated: Thu, 26-Mar-2015 9:40pm EDT
Overcast
Overcast
 Wind from NNW
Wind: NNW 16 mph , 26 km/h, Gust: 20 mph , 31 km/h
Temperature: 54°F , 12°C
Dew Point: 41°F , 5°C
Humidity: 63%
Barometer: 29.75 inHg , 1007.5 hPa
Clouds: Overcast
Visibility: 10 miles , 16 km
Cloud details: Partly cloudy 2800 ft
Partly cloudy 7000 ft
Overcast 8500 ft
2015/03/27 01:40 KFDK 270140Z AUTO 34014G17KT 10SM SCT028 SCT070 OVC085 12/05 A2975 RMK AO2
 
KESN - Easton/Newnam, Maryland, USA
Distance from station: SSE 48mi, 78km
Updated: Thu, 26-Mar-2015 10:00pm EDT
Rain, Mostly cloudy
Rain, Mostly cloudy
 Wind from N
Wind: N 9 mph , 15 km/h, Gust: 18 mph , 30 km/h
Temperature: 63°F , 17°C
Dew Point: 63°F , 17°C
Humidity: 100%
Barometer: 29.70 inHg , 1005.8 hPa
Summary: Rain
Clouds: Mostly cloudy
Visibility: 10 miles , 16 km
Cloud details: Partly cloudy 1100 ft
Mostly cloudy 6000 ft
2015/03/27 02:00 KESN 270200Z AUTO 35008G16KT 10SM RA SCT011 BKN060 17/17 A2970 RMK AO2 T01650165
KDCA - Washington/Natl, Washington D.c., USA
Distance from station: SW 49mi, 79km
Updated: Thu, 26-Mar-2015 9:34pm EDT
Overcast
Overcast
 Wind from N
Wind: N 16 mph , 26 km/h
Temperature: 63°F , 17°C
Dew Point: 54°F , 12°C
Humidity: 73%
Barometer: 29.67 inHg , 1004.7 hPa
Clouds: Overcast
Visibility: 10 miles , 16 km
Cloud details: Partly cloudy 4300 ft
Mostly cloudy 5500 ft
Overcast 9500 ft
2015/03/27 01:34 KDCA 270134Z 35014KT 10SM SCT043 BKN055 OVC095 17/12 A2967 RMK AO2 RAE09 P0000 $
 
KLNS - Lancaster, Pennsylvania, USA
Distance from station: N 49mi, 79km
Updated: Thu, 26-Mar-2015 9:38pm EDT
Overcast
Overcast
 Wind from NNW
Wind: NNW 13 mph , 20 km/h
Temperature: 48°F , 9°C
Wind Chill: 43°F , 6°C
Dew Point: 45°F , 7°C
Humidity: 87%
Barometer: 29.71 inHg , 1006.1 hPa
Clouds: Overcast
Visibility: 10 miles , 16 km
Cloud details: Partly cloudy 1500 ft
Mostly cloudy 7500 ft
Overcast 10000 ft
2015/03/27 01:38 KLNS 270138Z 33011KT 10SM SCT015 BKN075 OVC100 09/07 A2971 RMK AO2 T00940072
KILG - Wilmington, Delaware, USA
Distance from station: ENE 50mi, 81km
Updated: Thu, 26-Mar-2015 9:51pm EDT
Overcast
Overcast
 Wind from NNW
Wind: NNW 9 mph , 15 km/h, Gust: 20 mph , 31 km/h
Temperature: 55°F , 13°C
Dew Point: 52°F , 11°C
Humidity: 88%
Barometer: 29.67 inHg , 1004.7 hPa
Clouds: Overcast
Visibility: 10 miles , 16 km
Cloud details: Partly cloudy 3700 ft
Mostly cloudy 5500 ft
Overcast 10000 ft
2015/03/27 01:51 KILG 270151Z AUTO 33008G17KT 10SM SCT037 BKN055 OVC100 13/11 A2967 RMK AO2 PK WND 31031/0058 WSHFT 0041 RAE47 SLP048 P0012 T01280106